Terminal Aerodrome Forecast
Issued by NWS Tiyan, Guam

Home | Current Version | Previous Version | Text Only | Print | Product List | Glossary On
Versions: 1 2 3 4 5 6 7 8 9 10 11 12 13 14
000
FTPQ31 PGUM 291731
TAFGUM
TAF
PGUM 291731Z 2918/3024 VRB04KT P6SM VCSH FEW020 SCT050
     FM300100 11007KT P6SM VCSH SCT018 SCT040 BKN120
      TEMPO 3001/3005 -SHRA SCT014 BKN030=

USA.gov is the U.S. government's official web portal to all federal, state and local government web resources and services.